createdAt,value
2018-09-08T00:00:52.211Z,24.80
2018-09-08T00:03:21.901Z,22.07
2018-09-08T00:05:51.951Z,21.97
2018-09-08T00:08:21.789Z,18.97
2018-09-08T00:10:51.874Z,21.67
2018-09-08T00:13:21.711Z,22.77
2018-09-08T00:15:56.489Z,21.17
2018-09-08T00:18:31.043Z,25.07
2018-09-08T00:21:05.819Z,27.00
2018-09-08T00:23:40.577Z,26.13
2018-09-08T00:26:15.134Z,26.40
2018-09-08T00:28:50.549Z,25.63
2018-09-08T00:31:21.366Z,27.30
2018-09-08T00:33:50.882Z,25.97
2018-09-08T00:36:20.426Z,24.03
2018-09-08T00:38:50.430Z,25.60
2018-09-08T00:41:20.143Z,23.37
2018-09-08T00:43:50.124Z,23.93
2018-09-08T00:46:20.281Z,26.13
2018-09-08T00:48:49.730Z,27.60
2018-09-08T00:51:19.516Z,23.60
2018-09-08T00:53:49.340Z,24.97
2018-09-08T00:56:19.067Z,22.80
2018-09-08T00:58:53.997Z,24.37
2018-09-08T01:01:23.574Z,26.47
2018-09-08T01:03:53.211Z,21.93
2018-09-08T01:06:22.779Z,27.77
2018-09-08T01:08:52.873Z,31.87
2018-09-08T01:11:22.423Z,28.80
2018-09-08T01:13:52.281Z,27.20
2018-09-08T01:16:22.588Z,31.37
2018-09-08T01:18:52.619Z,29.47
2018-09-08T01:21:22.201Z,26.77
2018-09-08T01:23:54.421Z,30.20
2018-09-08T01:26:24.525Z,28.80
2018-09-08T01:28:54.133Z,29.07
2018-09-08T01:31:23.714Z,31.43
2018-09-08T01:33:53.179Z,29.33
2018-09-08T01:36:22.734Z,25.87
2018-09-08T01:38:52.299Z,28.70
2018-09-08T01:41:22.074Z,26.17
2018-09-08T01:43:51.786Z,30.97
2018-09-08T01:46:21.596Z,30.70
2018-09-08T01:48:51.117Z,30.43
2018-09-08T01:51:20.914Z,30.30
2018-09-08T01:53:50.701Z,31.00
2018-09-08T01:56:20.742Z,28.90
2018-09-08T01:58:51.290Z,29.27
2018-09-08T02:01:21.051Z,28.30
2018-09-08T02:03:50.638Z,29.47
2018-09-08T02:06:20.145Z,26.40
2018-09-08T02:08:50.208Z,32.10
2018-09-08T02:11:20.118Z,26.53
2018-09-08T02:13:49.746Z,28.07
2018-09-08T02:16:19.628Z,28.90
2018-09-08T02:18:49.153Z,30.87
2018-09-08T02:21:18.757Z,28.00
2018-09-08T02:23:48.588Z,28.77
2018-09-08T02:26:18.226Z,23.60
2018-09-08T02:28:47.877Z,27.37
2018-09-08T02:31:18.003Z,28.47
2018-09-08T02:33:47.417Z,28.87
2018-09-08T02:36:16.919Z,26.27
2018-09-08T02:38:46.575Z,28.07
2018-09-08T02:41:17.429Z,27.07
2018-09-08T02:43:46.875Z,30.20
2018-09-08T02:46:16.849Z,32.80
2018-09-08T02:48:46.398Z,32.17
2018-09-08T02:51:14.565Z,29.30
2018-09-08T02:53:43.070Z,30.97
2018-09-08T02:56:11.331Z,34.07
2018-09-08T02:58:39.432Z,29.67
2018-09-08T03:01:08.281Z,33.67
2018-09-08T03:03:36.420Z,32.03
2018-09-08T03:06:04.551Z,30.43
2018-09-08T03:08:32.766Z,30.83
2018-09-08T03:11:00.953Z,33.00
2018-09-08T03:13:29.079Z,34.10
2018-09-08T03:15:57.198Z,38.47
2018-09-08T03:18:25.303Z,36.00
2018-09-08T03:20:53.658Z,33.63
2018-09-08T03:23:21.873Z,34.27
2018-09-08T03:25:50.001Z,36.57
2018-09-08T03:28:18.138Z,37.70
2018-09-08T03:30:46.476Z,36.70
2018-09-08T03:33:14.575Z,34.93
2018-09-08T03:35:42.773Z,40.03
2018-09-08T03:38:10.932Z,32.60
2018-09-08T03:40:38.983Z,33.23
2018-09-08T03:43:07.326Z,35.90
2018-09-08T03:45:35.452Z,38.27
2018-09-08T03:48:03.598Z,37.20
2018-09-08T03:50:32.012Z,35.80
2018-09-08T03:53:00.176Z,33.20
2018-09-08T03:55:28.320Z,34.00
2018-09-08T03:57:57.627Z,37.27
2018-09-08T04:00:25.821Z,37.63
2018-09-08T04:02:56.146Z,35.50
2018-09-08T04:05:25.919Z,37.23
2018-09-08T04:07:55.390Z,36.70
2018-09-08T04:10:24.967Z,46.07
2018-09-08T04:12:54.837Z,38.13
2018-09-08T04:15:24.310Z,45.70
2018-09-08T04:17:53.936Z,41.17
2018-09-08T04:20:23.653Z,40.30
2018-09-08T04:22:53.205Z,37.17
2018-09-08T04:25:22.826Z,39.10
2018-09-08T04:27:52.819Z,36.13
2018-09-08T04:30:22.452Z,39.10
2018-09-08T04:32:52.050Z,34.33
2018-09-08T04:35:22.955Z,35.30
2018-09-08T04:37:52.535Z,33.00
2018-09-08T04:40:22.214Z,35.07
2018-09-08T04:42:52.177Z,33.93
2018-09-08T04:45:21.625Z,38.50
2018-09-08T04:47:51.250Z,38.27
2018-09-08T04:50:21.687Z,34.83
2018-09-08T04:52:51.269Z,34.80
2018-09-08T04:55:21.194Z,38.60
2018-09-08T04:57:51.546Z,35.00
2018-09-08T05:00:21.419Z,33.83
2018-09-08T05:02:50.820Z,37.03
2018-09-08T05:05:20.499Z,36.50
2018-09-08T05:07:49.860Z,39.00
2018-09-08T05:10:19.316Z,37.73
2018-09-08T05:12:48.900Z,38.60
2018-09-08T05:15:18.383Z,35.10
2018-09-08T05:17:48.178Z,35.17
2018-09-08T05:20:17.943Z,34.87
2018-09-08T05:22:47.599Z,32.50
2018-09-08T05:25:17.412Z,30.03
2018-09-08T05:27:47.008Z,37.43
2018-09-08T05:30:17.064Z,30.97
2018-09-08T05:32:46.870Z,34.03
2018-09-08T05:35:16.689Z,32.33
2018-09-08T05:37:46.397Z,35.23
2018-09-08T05:40:16.097Z,35.27
2018-09-08T05:42:46.342Z,33.80
2018-09-08T05:45:16.112Z,52.40
2018-09-08T05:47:45.952Z,53.53
2018-09-08T05:50:15.575Z,44.10
2018-09-08T05:52:45.267Z,45.23
2018-09-08T05:55:14.664Z,38.17
2018-09-08T05:57:44.399Z,35.23
2018-09-08T06:00:14.005Z,36.40
2018-09-08T06:02:43.645Z,36.77
2018-09-08T06:05:13.555Z,38.43
2018-09-08T06:07:43.213Z,41.83
2018-09-08T06:10:12.976Z,37.47
2018-09-08T06:12:42.862Z,40.33
2018-09-08T06:15:12.241Z,40.73
2018-09-08T06:17:41.966Z,40.93
2018-09-08T06:20:11.597Z,41.40
2018-09-08T06:22:41.414Z,32.73
2018-09-08T06:25:10.898Z,34.23
2018-09-08T06:27:40.409Z,39.27
2018-09-08T06:30:09.896Z,40.30
2018-09-08T06:32:39.598Z,40.63
2018-09-08T06:35:10.000Z,35.77
2018-09-08T06:37:39.647Z,42.00
2018-09-08T06:40:09.152Z,36.10
2018-09-08T06:42:39.257Z,43.20
2018-09-08T06:45:09.112Z,35.30
2018-09-08T06:47:38.890Z,38.00
2018-09-08T06:50:08.764Z,35.57
2018-09-08T06:52:38.336Z,35.80
2018-09-08T06:55:07.836Z,46.13
2018-09-08T06:57:37.473Z,36.63
2018-09-08T07:00:07.808Z,44.97
2018-09-08T07:02:37.318Z,35.63
2018-09-08T07:05:07.371Z,39.27
2018-09-08T07:07:36.953Z,38.20
2018-09-08T07:10:07.212Z,35.67
2018-09-08T07:12:37.189Z,38.30
2018-09-08T07:15:07.382Z,31.07
2018-09-08T07:17:37.149Z,31.20
2018-09-08T07:20:07.527Z,30.80
2018-09-08T07:22:37.114Z,31.03
2018-09-08T07:25:07.426Z,35.90
2018-09-08T07:27:36.800Z,30.17
2018-09-08T07:30:06.335Z,33.93
2018-09-08T07:32:36.098Z,27.87
2018-09-08T07:35:06.080Z,26.63
2018-09-08T07:37:35.471Z,27.80
2018-09-08T07:40:05.174Z,28.00
2018-09-08T07:42:35.331Z,32.83
2018-09-08T07:45:05.031Z,30.57
2018-09-08T07:47:34.725Z,27.90
2018-09-08T07:50:04.461Z,27.93
2018-09-08T07:52:33.962Z,30.80
2018-09-08T07:55:03.536Z,23.60
2018-09-08T07:57:33.495Z,22.13
2018-09-08T08:00:03.190Z,27.67
2018-09-08T08:02:32.592Z,21.87
2018-09-08T08:05:02.684Z,20.67
2018-09-08T08:07:32.097Z,27.10
2018-09-08T08:10:01.708Z,21.10
2018-09-08T08:12:31.461Z,20.00
2018-09-08T08:15:01.223Z,24.03
2018-09-08T08:17:30.643Z,21.87
2018-09-08T08:20:00.169Z,21.67
2018-09-08T08:22:29.670Z,22.23
2018-09-08T08:24:59.206Z,20.33
2018-09-08T08:27:29.210Z,24.80
2018-09-08T08:29:58.874Z,27.03
2018-09-08T08:32:28.745Z,21.27
2018-09-08T08:34:58.630Z,20.57
2018-09-08T08:37:28.125Z,19.27
2018-09-08T08:39:57.639Z,19.80
2018-09-08T08:42:27.965Z,18.60
2018-09-08T08:44:57.301Z,18.53
2018-09-08T08:47:26.825Z,19.00
2018-09-08T08:50:07.853Z,24.07
2018-09-08T08:52:48.825Z,22.63
2018-09-08T08:55:18.673Z,21.13
2018-09-08T08:57:48.325Z,19.40
2018-09-08T09:00:17.925Z,17.60
2018-09-08T09:02:48.032Z,20.00
2018-09-08T09:05:17.766Z,17.77
2018-09-08T09:07:47.390Z,19.13
2018-09-08T09:10:17.238Z,20.50
2018-09-08T09:12:46.772Z,17.43
2018-09-08T09:15:16.637Z,17.53
2018-09-08T09:17:46.469Z,19.17
2018-09-08T09:20:26.960Z,20.80
2018-09-08T09:23:08.002Z,19.00
2018-09-08T09:25:37.481Z,15.77
2018-09-08T09:28:07.088Z,18.47
2018-09-08T09:30:36.644Z,15.83
2018-09-08T09:33:06.093Z,17.17
2018-09-08T09:35:35.756Z,16.87
2018-09-08T09:38:06.045Z,17.23
2018-09-08T09:40:35.550Z,17.10
2018-09-08T09:43:05.148Z,15.20
2018-09-08T09:45:35.339Z,14.47
2018-09-08T09:48:05.006Z,19.30
2018-09-08T09:50:34.485Z,16.40
2018-09-08T09:53:04.882Z,15.70
2018-09-08T09:55:34.577Z,17.57
2018-09-08T09:58:04.121Z,15.23
2018-09-08T10:00:38.695Z,17.17
2018-09-08T10:03:08.463Z,16.47
2018-09-08T10:05:37.881Z,15.50
2018-09-08T10:08:07.259Z,16.83
2018-09-08T10:10:36.952Z,16.83
2018-09-08T10:13:06.789Z,14.47
2018-09-08T10:15:36.850Z,15.07
2018-09-08T10:18:06.828Z,15.13
2018-09-08T10:20:36.341Z,13.57
2018-09-08T10:23:06.958Z,17.10
2018-09-08T10:25:36.489Z,17.13
2018-09-08T10:28:06.203Z,27.07
2018-09-08T10:30:36.286Z,15.10
2018-09-08T10:33:05.923Z,15.80
2018-09-08T10:35:35.477Z,13.20
2018-09-08T10:38:05.553Z,15.03
2018-09-08T10:40:35.257Z,14.43
2018-09-08T10:43:04.844Z,14.53
2018-09-08T10:45:35.124Z,13.83
2018-09-08T10:48:04.648Z,15.57
2018-09-08T10:50:34.934Z,13.03
2018-09-08T10:53:04.933Z,15.47
2018-09-08T10:55:34.405Z,12.93
2018-09-08T10:58:04.203Z,15.83
2018-09-08T11:00:34.266Z,14.07
2018-09-08T11:03:03.839Z,15.23
2018-09-08T11:05:33.593Z,14.80
2018-09-08T11:08:03.765Z,13.47
2018-09-08T11:10:33.222Z,13.87
2018-09-08T11:13:03.032Z,13.70
2018-09-08T11:15:32.823Z,16.10
2018-09-08T11:18:02.557Z,13.57
2018-09-08T11:20:32.365Z,15.03
2018-09-08T11:23:03.118Z,16.33
2018-09-08T11:25:32.712Z,13.70
2018-09-08T11:28:02.209Z,11.80
2018-09-08T11:30:32.581Z,11.93
2018-09-08T11:33:02.042Z,14.93
2018-09-08T11:35:31.832Z,11.60
2018-09-08T11:38:01.327Z,15.07
2018-09-08T11:40:30.987Z,14.13
2018-09-08T11:43:00.441Z,12.37
2018-09-08T11:45:30.221Z,12.40
2018-09-08T11:47:59.903Z,22.47
2018-09-08T11:50:29.361Z,14.63
2018-09-08T11:52:59.315Z,19.47
2018-09-08T11:55:29.061Z,12.20
2018-09-08T11:57:58.770Z,17.47
2018-09-08T12:00:28.418Z,11.90
2018-09-08T12:02:58.122Z,12.53
2018-09-08T12:05:27.579Z,14.53
2018-09-08T12:07:57.541Z,11.33
2018-09-08T12:10:27.002Z,11.53
2018-09-08T12:12:56.406Z,10.10
2018-09-08T12:15:26.626Z,10.83
2018-09-08T12:17:55.970Z,8.73
2018-09-08T12:20:25.525Z,8.40
2018-09-08T12:22:54.922Z,11.53
2018-09-08T12:25:24.702Z,8.93
2018-09-08T12:27:54.191Z,9.37
2018-09-08T12:30:24.401Z,11.60
2018-09-08T12:32:53.688Z,8.80
2018-09-08T12:35:23.239Z,8.73
2018-09-08T12:37:53.148Z,9.47
2018-09-08T12:40:22.662Z,10.77
2018-09-08T12:42:52.206Z,9.13
2018-09-08T12:45:22.192Z,8.70
2018-09-08T12:47:51.524Z,9.80
2018-09-08T12:50:21.022Z,8.57
2018-09-08T12:52:50.807Z,13.17
2018-09-08T12:55:20.417Z,10.33
2018-09-08T12:57:50.075Z,10.30
2018-09-08T13:00:19.603Z,11.00
2018-09-08T13:02:49.290Z,10.67
2018-09-08T13:05:18.850Z,11.90
2018-09-08T13:07:48.721Z,10.50
2018-09-08T13:10:18.529Z,12.00
2018-09-08T13:12:48.337Z,11.63
2018-09-08T13:15:18.473Z,11.60
2018-09-08T13:17:47.959Z,12.20
2018-09-08T13:20:17.468Z,9.97
2018-09-08T13:22:47.386Z,9.90
2018-09-08T13:25:16.936Z,10.57
2018-09-08T13:27:46.715Z,14.17
2018-09-08T13:30:17.562Z,11.73
2018-09-08T13:32:47.250Z,13.47
2018-09-08T13:35:16.868Z,13.27
2018-09-08T13:37:46.791Z,12.63
2018-09-08T13:40:16.283Z,12.17
2018-09-08T13:42:45.559Z,11.77
2018-09-08T13:45:15.086Z,10.97
2018-09-08T13:47:44.859Z,11.80
2018-09-08T13:50:14.822Z,17.37
2018-09-08T13:52:44.644Z,11.40
2018-09-08T13:55:14.313Z,13.10
2018-09-08T13:57:43.944Z,11.30
2018-09-08T14:00:13.844Z,12.93
2018-09-08T14:02:43.497Z,13.17
2018-09-08T14:05:12.868Z,11.80
2018-09-08T14:07:48.096Z,10.97
2018-09-08T14:10:17.812Z,13.23
2018-09-08T14:12:47.233Z,11.10
2018-09-08T14:15:17.144Z,14.37
2018-09-08T14:17:46.542Z,11.97
2018-09-08T14:20:16.227Z,12.07
2018-09-08T14:22:46.095Z,10.60
2018-09-08T14:25:15.787Z,14.17
2018-09-08T14:27:45.557Z,11.17
2018-09-08T14:30:15.411Z,10.33
2018-09-08T14:32:45.135Z,10.80
2018-09-08T14:35:14.734Z,11.63
2018-09-08T14:37:44.761Z,11.80
2018-09-08T14:40:14.331Z,11.40
2018-09-08T14:42:43.887Z,11.27
2018-09-08T14:45:13.748Z,10.80
2018-09-08T14:47:43.400Z,11.97
2018-09-08T14:50:12.796Z,11.23
2018-09-08T14:52:42.717Z,11.10
2018-09-08T14:55:12.401Z,13.30
2018-09-08T14:57:41.812Z,16.33
2018-09-08T15:00:11.753Z,11.90
2018-09-08T15:02:41.449Z,12.53
2018-09-08T15:05:11.056Z,12.57
2018-09-08T15:07:40.997Z,13.93
2018-09-08T15:10:10.675Z,11.73
2018-09-08T15:12:40.087Z,11.73
2018-09-08T15:15:09.879Z,12.50
2018-09-08T15:17:39.320Z,11.33
2018-09-08T15:20:09.198Z,14.80
2018-09-08T15:22:39.614Z,12.83
2018-09-08T15:25:09.543Z,12.20
2018-09-08T15:27:39.161Z,13.07
2018-09-08T15:30:08.810Z,12.70
2018-09-08T15:32:38.412Z,12.33
2018-09-08T15:35:08.103Z,10.13
2018-09-08T15:37:38.208Z,9.43
2018-09-08T15:40:07.978Z,9.60
2018-09-08T15:42:37.529Z,7.80
2018-09-08T15:45:07.683Z,8.37
2018-09-08T15:47:37.524Z,10.43
2018-09-08T15:50:07.385Z,11.80
2018-09-08T15:52:36.847Z,12.47
2018-09-08T15:55:06.575Z,12.47
2018-09-08T15:57:36.171Z,11.80
2018-09-08T16:00:06.335Z,14.43
2018-09-08T16:02:35.738Z,13.17
2018-09-08T16:05:05.637Z,10.80
2018-09-08T16:07:35.684Z,11.40
2018-09-08T16:10:05.265Z,12.60
2018-09-08T16:12:34.883Z,13.63
2018-09-08T16:15:05.229Z,15.90
2018-09-08T16:17:34.721Z,13.03
2018-09-08T16:20:04.577Z,12.67
2018-09-08T16:22:34.469Z,12.27
2018-09-08T16:25:04.350Z,14.37
2018-09-08T16:27:34.287Z,12.33
2018-09-08T16:30:04.113Z,15.87
2018-09-08T16:32:33.825Z,13.33
2018-09-08T16:35:03.187Z,16.87
2018-09-08T16:37:33.147Z,14.23
2018-09-08T16:40:02.743Z,14.60
2018-09-08T16:42:32.233Z,18.53
2018-09-08T16:45:02.079Z,14.67
2018-09-08T16:47:31.475Z,13.00
2018-09-08T16:50:01.371Z,13.73
2018-09-08T16:52:31.510Z,16.03
2018-09-08T16:55:01.190Z,13.63
2018-09-08T16:57:31.022Z,15.07
2018-09-08T17:00:00.856Z,15.67
2018-09-08T17:02:30.430Z,14.60
2018-09-08T17:05:00.474Z,14.73
2018-09-08T17:07:30.396Z,16.70
2018-09-08T17:09:59.956Z,13.53
2018-09-08T17:12:29.688Z,15.90
2018-09-08T17:15:00.035Z,15.83
2018-09-08T17:17:29.411Z,18.47
2018-09-08T17:19:59.025Z,18.60
2018-09-08T17:22:28.939Z,15.87
2018-09-08T17:24:58.638Z,18.07
2018-09-08T17:27:28.457Z,22.53
2018-09-08T17:29:58.302Z,17.87
2018-09-08T17:32:27.691Z,18.30
2018-09-08T17:34:57.079Z,19.57
2018-09-08T17:37:27.008Z,20.63
2018-09-08T17:39:56.470Z,25.70
2018-09-08T17:42:26.133Z,19.20
2018-09-08T17:44:55.884Z,17.67
2018-09-08T17:47:25.534Z,17.97
2018-09-08T17:49:54.994Z,19.17
2018-09-08T17:52:24.985Z,17.37
2018-09-08T17:54:54.336Z,18.47
2018-09-08T17:57:24.320Z,18.20
2018-09-08T17:59:53.892Z,18.20
2018-09-08T18:02:23.512Z,17.30
2018-09-08T18:04:52.918Z,19.17
2018-09-08T18:07:22.955Z,21.17
2018-09-08T18:09:52.827Z,27.27
2018-09-08T18:12:22.402Z,19.60
2018-09-08T18:14:52.674Z,19.73
2018-09-08T18:17:22.123Z,18.47
2018-09-08T18:19:51.771Z,20.67
2018-09-08T18:22:22.659Z,19.93
2018-09-08T18:24:52.337Z,23.80
2018-09-08T18:27:21.917Z,21.80
2018-09-08T18:29:51.958Z,18.93
2018-09-08T18:32:21.640Z,24.97
2018-09-08T18:34:51.171Z,19.47
2018-09-08T18:37:20.720Z,20.20
2018-09-08T18:39:50.278Z,18.93
2018-09-08T18:42:20.010Z,17.23
2018-09-08T18:44:49.885Z,21.43
2018-09-08T18:47:19.474Z,19.87
2018-09-08T18:49:49.036Z,19.23
2018-09-08T18:52:18.882Z,19.87
2018-09-08T18:54:48.449Z,19.90
2018-09-08T18:57:18.316Z,17.73
2018-09-08T18:59:48.419Z,19.67
2018-09-08T19:02:17.989Z,21.33
2018-09-08T19:04:47.855Z,21.07
2018-09-08T19:07:17.843Z,19.97
2018-09-08T19:09:55.350Z,20.50
2018-09-08T19:12:25.415Z,22.33
2018-09-08T19:15:01.252Z,22.00
2018-09-08T19:17:31.527Z,22.40
2018-09-08T19:20:06.284Z,24.37
2018-09-08T19:22:36.078Z,21.57
2018-09-08T19:25:05.706Z,24.40
2018-09-08T19:27:35.377Z,20.70
2018-09-08T19:30:05.667Z,21.27
2018-09-08T19:32:35.104Z,24.60
2018-09-08T19:35:09.645Z,24.90
2018-09-08T19:37:38.991Z,25.10
2018-09-08T19:40:14.081Z,23.07
2018-09-08T19:42:43.491Z,24.77
2018-09-08T19:45:13.229Z,24.70
2018-09-08T19:47:48.000Z,23.57
2018-09-08T19:50:17.714Z,23.80
2018-09-08T19:52:52.816Z,25.47
2018-09-08T19:55:22.573Z,24.10
2018-09-08T19:57:57.423Z,24.17
2018-09-08T20:00:26.769Z,23.97
2018-09-08T20:02:59.506Z,23.03
2018-09-08T20:05:29.211Z,22.83
2018-09-08T20:07:58.715Z,25.63
2018-09-08T20:10:28.361Z,26.00
2018-09-08T20:12:57.726Z,24.23
2018-09-08T20:15:27.337Z,23.43
2018-09-08T20:17:56.753Z,24.50
2018-09-08T20:20:26.528Z,23.90
2018-09-08T20:22:55.946Z,26.20
2018-09-08T20:25:25.671Z,24.93
2018-09-08T20:27:57.259Z,25.33
2018-09-08T20:30:26.801Z,24.47
2018-09-08T20:32:56.166Z,28.40
2018-09-08T20:35:26.243Z,24.70
2018-09-08T20:37:59.296Z,25.07
2018-09-08T20:40:28.739Z,26.63
2018-09-08T20:42:58.244Z,24.23
2018-09-08T20:45:28.470Z,23.57
2018-09-08T20:47:58.083Z,23.43
2018-09-08T20:50:27.682Z,23.40
2018-09-08T20:52:57.318Z,24.87
2018-09-08T20:55:26.809Z,24.90
2018-09-08T20:57:56.244Z,25.07
2018-09-08T21:00:25.883Z,26.27
2018-09-08T21:02:55.368Z,25.13
2018-09-08T21:05:25.131Z,26.97
2018-09-08T21:07:54.863Z,26.03
2018-09-08T21:10:24.446Z,25.83
2018-09-08T21:12:53.750Z,26.93
2018-09-08T21:15:24.115Z,26.20
2018-09-08T21:17:53.408Z,28.17
2018-09-08T21:20:22.977Z,26.67
2018-09-08T21:22:52.978Z,25.93
2018-09-08T21:25:22.530Z,25.73
2018-09-08T21:27:52.131Z,25.90
2018-09-08T21:30:21.861Z,24.70
2018-09-08T21:32:51.462Z,31.20
2018-09-08T21:35:21.042Z,30.73
2018-09-08T21:37:51.083Z,28.93
2018-09-08T21:40:20.475Z,26.63
2018-09-08T21:42:50.069Z,25.77
2018-09-08T21:45:20.008Z,26.23
2018-09-08T21:47:49.715Z,26.27
2018-09-08T21:50:19.298Z,26.33
2018-09-08T21:52:49.244Z,25.40
2018-09-08T21:55:18.836Z,25.77
2018-09-08T22:15:10.986Z,26.27
2018-09-08T22:17:40.451Z,26.90
2018-09-08T22:20:10.428Z,28.07
2018-09-08T22:22:40.046Z,25.80
2018-09-08T22:25:09.526Z,26.27
2018-09-08T22:45:01.304Z,27.70
2018-09-08T22:47:31.194Z,29.37
2018-09-08T23:07:22.759Z,25.17
2018-09-08T23:09:52.599Z,25.00
2018-09-08T23:12:22.413Z,26.57
2018-09-08T23:14:52.408Z,26.47
2018-09-08T23:17:21.887Z,26.53
2018-09-08T23:19:51.161Z,25.33
2018-09-08T23:22:21.033Z,27.77
2018-09-08T23:24:50.487Z,25.23
2018-09-08T23:27:20.403Z,24.53
2018-09-08T23:29:50.355Z,26.00
2018-09-08T23:32:20.022Z,26.10
2018-09-08T23:34:49.749Z,24.77
2018-09-08T23:37:19.889Z,24.67
2018-09-08T23:39:49.388Z,24.77
2018-09-08T23:42:19.273Z,24.07
2018-09-08T23:44:48.909Z,23.80
2018-09-08T23:47:18.633Z,23.43
2018-09-08T23:49:48.336Z,24.73
2018-09-08T23:52:17.949Z,24.03
2018-09-08T23:54:47.734Z,25.77
2018-09-08T23:57:17.145Z,22.87
2018-09-08T23:59:46.687Z,24.27
